createdAt,value
2022-08-26T00:01:58.215Z,9.80
2022-08-26T00:05:03.795Z,10.75
2022-08-26T00:08:06.261Z,10.43
2022-08-26T00:11:11.674Z,11.40
2022-08-26T00:14:15.325Z,10.27
2022-08-26T00:17:18.722Z,10.32
2022-08-26T00:20:24.883Z,10.82
2022-08-26T00:23:28.997Z,9.57
2022-08-26T00:26:34.793Z,10.18
2022-08-26T00:29:37.783Z,9.48
2022-08-26T00:32:40.434Z,10.43
2022-08-26T00:35:47.239Z,10.68
2022-08-26T00:38:49.716Z,9.07
2022-08-26T00:41:53.697Z,10.45
2022-08-26T00:44:56.593Z,11.65
2022-08-26T00:48:03.977Z,12.27
2022-08-26T00:51:12.662Z,11.98
2022-08-26T00:54:16.213Z,11.82
2022-08-26T00:57:22.784Z,12.90
2022-08-26T01:00:28.131Z,12.80
2022-08-26T01:03:32.905Z,13.55
2022-08-26T01:06:35.744Z,12.40
2022-08-26T01:09:38.785Z,13.00
2022-08-26T01:12:47.690Z,11.98
2022-08-26T01:15:54.801Z,13.20
2022-08-26T01:19:02.082Z,13.32
2022-08-26T01:22:10.147Z,12.48
2022-08-26T01:25:14.854Z,13.77
2022-08-26T01:28:22.577Z,14.40
2022-08-26T01:31:28.351Z,15.27
2022-08-26T01:34:34.988Z,14.90
2022-08-26T01:37:40.452Z,12.15
2022-08-26T01:40:45.831Z,14.70
2022-08-26T01:43:54.149Z,13.00
2022-08-26T01:46:58.731Z,13.13
2022-08-26T01:50:05.226Z,12.57
2022-08-26T01:53:12.072Z,13.63
2022-08-26T01:56:16.607Z,11.38
2022-08-26T01:59:21.338Z,9.95
2022-08-26T02:02:25.048Z,11.65
2022-08-26T02:05:27.509Z,13.00
2022-08-26T02:08:37.840Z,13.00
2022-08-26T02:11:41.903Z,14.35
2022-08-26T02:14:50.285Z,13.23
2022-08-26T02:17:53.868Z,13.48
2022-08-26T02:20:58.494Z,15.18
2022-08-26T02:24:10.107Z,14.05
2022-08-26T02:30:20.586Z,14.70
2022-08-26T02:33:23.070Z,14.77
2022-08-26T02:36:28.580Z,14.73
2022-08-26T02:39:32.721Z,14.40
2022-08-26T02:42:37.468Z,14.73
2022-08-26T02:45:41.536Z,15.00
2022-08-26T02:48:44.436Z,13.93
2022-08-26T02:51:49.802Z,14.18
2022-08-26T02:54:53.576Z,14.70
2022-08-26T02:57:57.343Z,13.73
2022-08-26T03:01:00.123Z,13.93
2022-08-26T03:04:07.142Z,13.90
2022-08-26T03:07:09.759Z,15.20
2022-08-26T03:10:13.142Z,14.68
2022-08-26T03:13:18.580Z,15.82
2022-08-26T03:16:21.618Z,13.35
2022-08-26T03:19:26.984Z,15.00
2022-08-26T03:22:29.501Z,14.70
2022-08-26T03:25:32.058Z,14.38
2022-08-26T03:28:36.504Z,13.63
2022-08-26T03:31:38.257Z,13.02
2022-08-26T03:34:40.792Z,13.80
2022-08-26T03:37:43.646Z,13.38
2022-08-26T03:40:46.851Z,13.70
2022-08-26T03:43:50.985Z,14.40
2022-08-26T03:46:54.563Z,13.00
2022-08-26T03:49:59.032Z,13.30
2022-08-26T03:53:02.452Z,12.43
2022-08-26T03:56:06.089Z,12.40
2022-08-26T03:59:09.873Z,13.20
2022-08-26T04:02:12.360Z,12.68
2022-08-26T04:05:17.455Z,14.32
2022-08-26T04:08:20.202Z,13.15
2022-08-26T04:11:25.353Z,12.93
2022-08-26T04:14:29.650Z,13.45
2022-08-26T04:17:32.169Z,14.57
2022-08-26T04:20:34.695Z,13.15
2022-08-26T04:23:46.960Z,10.88
2022-08-26T04:26:50.655Z,6.10
2022-08-26T04:29:55.261Z,8.57
2022-08-26T04:32:58.211Z,11.80
2022-08-26T04:36:02.224Z,13.30
2022-08-26T04:39:05.463Z,14.23
2022-08-26T04:42:07.994Z,14.57
2022-08-26T04:45:14.073Z,16.23
2022-08-26T04:48:16.780Z,15.75
2022-08-26T04:51:20.388Z,15.65
2022-08-26T04:54:22.998Z,16.08
2022-08-26T04:57:27.597Z,17.05
2022-08-26T05:00:31.539Z,16.02
2022-08-26T05:03:34.001Z,16.70
2022-08-26T05:06:37.640Z,16.90
2022-08-26T05:09:41.096Z,16.30
2022-08-26T05:12:44.370Z,16.20
2022-08-26T05:15:49.314Z,15.48
2022-08-26T05:18:53.959Z,15.02
2022-08-26T05:21:56.467Z,15.43
2022-08-26T05:24:58.930Z,14.15
2022-08-26T05:28:01.386Z,13.57
2022-08-26T05:31:12.511Z,13.80
2022-08-26T05:34:17.858Z,14.02
2022-08-26T05:37:22.965Z,12.90
2022-08-26T05:40:25.821Z,13.00
2022-08-26T05:43:28.760Z,13.15
2022-08-26T05:46:35.129Z,12.48
2022-08-26T05:49:37.873Z,12.55
2022-08-26T05:52:53.812Z,12.23
2022-08-26T05:55:56.677Z,11.13
2022-08-26T05:59:01.480Z,11.73
2022-08-26T06:02:06.124Z,12.00
2022-08-26T06:05:09.544Z,11.55
2022-08-26T06:08:13.862Z,11.27
2022-08-26T06:11:19.596Z,12.07
2022-08-26T06:14:22.974Z,11.15
2022-08-26T06:17:26.776Z,11.40
2022-08-26T06:20:32.074Z,11.93
2022-08-26T06:23:52.333Z,10.85
2022-08-26T06:26:56.252Z,12.10
2022-08-26T06:29:59.345Z,10.77
2022-08-26T06:33:03.829Z,11.27
2022-08-26T06:36:08.414Z,10.85
2022-08-26T06:39:14.326Z,11.38
2022-08-26T06:42:16.768Z,11.00
2022-08-26T06:45:19.778Z,11.32
2022-08-26T06:48:23.874Z,10.25
2022-08-26T06:51:28.834Z,11.27
2022-08-26T06:54:32.420Z,10.65
2022-08-26T06:57:37.779Z,11.05
2022-08-26T07:00:47.219Z,10.20
2022-08-26T07:03:53.059Z,10.35
2022-08-26T07:06:57.437Z,9.85
2022-08-26T07:09:59.981Z,11.05
2022-08-26T07:13:02.449Z,9.70
2022-08-26T07:16:05.835Z,10.85
2022-08-26T07:19:11.014Z,10.70
2022-08-26T07:22:14.135Z,9.80
2022-08-26T07:25:16.667Z,8.65
2022-08-26T07:28:22.448Z,10.45
2022-08-26T07:31:28.060Z,8.88
2022-08-26T07:34:33.606Z,9.13
2022-08-26T07:37:39.220Z,9.20
2022-08-26T07:40:42.517Z,9.70
2022-08-26T07:43:45.736Z,9.95
2022-08-26T07:46:53.356Z,9.02
2022-08-26T07:49:58.580Z,8.13
2022-08-26T07:53:02.321Z,8.18
2022-08-26T07:56:05.456Z,7.97
2022-08-26T07:59:14.061Z,7.03
2022-08-26T08:02:17.629Z,6.95
2022-08-26T08:05:23.725Z,7.57
2022-08-26T08:08:36.307Z,6.53
2022-08-26T08:11:38.805Z,7.72
2022-08-26T08:14:42.160Z,7.28
2022-08-26T08:17:46.217Z,7.72
2022-08-26T08:21:04.652Z,7.85
2022-08-26T08:24:13.537Z,7.45
2022-08-26T08:27:17.243Z,7.15
2022-08-26T08:30:24.390Z,7.07
2022-08-26T08:33:27.131Z,6.25
2022-08-26T08:36:32.192Z,6.85
2022-08-26T08:39:38.887Z,6.35
2022-08-26T08:42:46.898Z,5.55
2022-08-26T08:45:55.480Z,6.82
2022-08-26T08:49:00.482Z,6.15
2022-08-26T08:52:11.549Z,6.03
2022-08-26T08:55:18.276Z,5.53
2022-08-26T08:58:25.457Z,6.38
2022-08-26T09:01:55.672Z,6.22
2022-08-26T09:05:15.066Z,5.60
2022-08-26T09:08:24.816Z,6.22
2022-08-26T09:11:27.308Z,6.13
2022-08-26T09:14:29.906Z,5.25
2022-08-26T09:17:44.816Z,5.13
2022-08-26T09:20:53.984Z,5.55
2022-08-26T09:23:58.434Z,5.68
2022-08-26T09:27:00.930Z,5.38
2022-08-26T09:30:03.510Z,4.40
2022-08-26T09:33:10.124Z,6.10
2022-08-26T09:36:16.919Z,5.75
2022-08-26T09:39:37.882Z,5.72
2022-08-26T09:42:40.640Z,6.20
2022-08-26T09:45:50.826Z,5.65
2022-08-26T09:48:55.284Z,5.50
2022-08-26T09:52:12.587Z,5.47
2022-08-26T09:55:22.309Z,5.50
2022-08-26T09:58:37.945Z,6.07
2022-08-26T10:01:43.226Z,6.53
2022-08-26T10:04:51.839Z,5.90
2022-08-26T10:07:55.249Z,6.10
2022-08-26T10:11:02.273Z,5.25
2022-08-26T10:14:11.085Z,6.78
2022-08-26T10:17:23.169Z,5.85
2022-08-26T10:20:27.865Z,7.05
2022-08-26T10:23:33.975Z,7.30
2022-08-26T10:26:45.097Z,6.05
2022-08-26T10:29:50.885Z,7.65
2022-08-26T10:32:58.881Z,6.03
2022-08-26T10:36:12.253Z,8.75
2022-08-26T10:39:22.948Z,7.55
2022-08-26T10:42:33.397Z,7.47
2022-08-26T10:45:39.319Z,7.82
2022-08-26T10:48:52.250Z,8.45
2022-08-26T10:52:01.885Z,6.90
2022-08-26T10:55:15.774Z,7.38
2022-08-26T10:58:32.847Z,7.45
2022-08-26T11:01:43.365Z,6.47
2022-08-26T11:04:54.298Z,6.05
2022-08-26T11:11:46.926Z,6.90
2022-08-26T11:14:58.403Z,7.38
2022-08-26T11:18:02.953Z,7.15
2022-08-26T11:21:47.667Z,6.63
2022-08-26T11:25:11.490Z,8.50
2022-08-26T11:28:34.342Z,7.32
2022-08-26T11:31:54.693Z,7.93
2022-08-26T11:35:00.484Z,7.15
2022-08-26T11:38:06.003Z,7.65
2022-08-26T11:41:11.439Z,7.38
2022-08-26T11:44:21.779Z,7.85
2022-08-26T11:47:30.955Z,7.23
2022-08-26T11:50:33.416Z,7.72
2022-08-26T11:53:39.526Z,7.95
2022-08-26T11:56:43.780Z,8.07
2022-08-26T11:59:47.633Z,7.85
2022-08-26T12:02:51.283Z,8.27
2022-08-26T12:05:55.425Z,7.78
2022-08-26T12:09:02.225Z,6.88
2022-08-26T12:12:13.685Z,7.68
2022-08-26T12:15:21.931Z,7.50
2022-08-26T12:18:29.581Z,8.27
2022-08-26T12:21:34.790Z,7.97
2022-08-26T12:24:44.136Z,7.95
2022-08-26T12:27:51.798Z,8.43
2022-08-26T12:31:02.689Z,7.45
2022-08-26T12:34:17.420Z,8.25
2022-08-26T12:37:20.433Z,7.43
2022-08-26T12:40:32.151Z,7.57
2022-08-26T12:43:40.810Z,7.72
2022-08-26T12:46:49.208Z,7.57
2022-08-26T12:50:03.061Z,7.63
2022-08-26T12:53:14.158Z,7.78
2022-08-26T12:59:26.329Z,7.55
2022-08-26T13:02:37.489Z,7.93
2022-08-26T13:08:44.098Z,8.13
2022-08-26T13:11:59.025Z,8.05
2022-08-26T13:15:02.725Z,8.57
2022-08-26T13:18:07.646Z,7.90
2022-08-26T13:21:14.373Z,8.00
2022-08-26T13:24:21.127Z,8.75
2022-08-26T13:27:26.310Z,5.10
2022-08-26T13:30:28.932Z,5.05
2022-08-26T13:33:33.110Z,5.63
2022-08-26T13:36:35.601Z,4.85
2022-08-26T13:39:38.153Z,5.53
2022-08-26T13:42:49.379Z,4.93
2022-08-26T13:45:52.557Z,4.60
2022-08-26T13:48:56.730Z,5.38
2022-08-26T13:51:59.232Z,5.78
2022-08-26T13:55:01.792Z,5.60
2022-08-26T13:58:04.310Z,5.60
2022-08-26T14:01:08.706Z,5.57
2022-08-26T14:04:12.550Z,4.68
2022-08-26T14:07:15.249Z,5.03
2022-08-26T14:10:17.933Z,5.60
2022-08-26T14:13:20.517Z,5.03
2022-08-26T14:16:26.585Z,4.88
2022-08-26T14:19:31.431Z,5.40
2022-08-26T14:22:34.099Z,5.15
2022-08-26T14:25:36.581Z,5.25
2022-08-26T14:28:39.289Z,5.72
2022-08-26T14:31:41.813Z,5.40
2022-08-26T14:34:45.652Z,5.53
2022-08-26T14:37:48.631Z,4.72
2022-08-26T14:40:51.130Z,5.85
2022-08-26T14:43:58.038Z,5.57
2022-08-26T14:47:01.949Z,5.28
2022-08-26T14:50:07.056Z,5.70
2022-08-26T14:53:27.091Z,5.90
2022-08-26T14:56:31.680Z,5.80
2022-08-26T14:59:35.952Z,5.05
2022-08-26T15:02:39.120Z,5.05
2022-08-26T15:05:48.119Z,4.80
2022-08-26T15:08:50.754Z,4.80
2022-08-26T15:11:53.983Z,4.60
2022-08-26T15:14:56.505Z,4.60
2022-08-26T15:17:59.021Z,3.95
2022-08-26T15:21:03.128Z,4.20
2022-08-26T15:24:06.117Z,4.72
2022-08-26T15:27:09.030Z,3.88
2022-08-26T15:30:12.822Z,4.72
2022-08-26T15:33:15.660Z,5.22
2022-08-26T15:36:19.512Z,5.18
2022-08-26T15:39:22.367Z,5.00
2022-08-26T15:42:25.229Z,6.07
2022-08-26T15:45:27.953Z,5.38
2022-08-26T15:48:30.435Z,6.10
2022-08-26T15:51:45.627Z,6.25
2022-08-26T15:54:48.582Z,6.10
2022-08-26T15:57:53.019Z,5.72
2022-08-26T16:00:55.865Z,6.30
2022-08-26T16:03:59.520Z,6.20
2022-08-26T16:07:03.460Z,6.80
2022-08-26T16:10:06.851Z,5.82
2022-08-26T16:13:11.688Z,6.35
2022-08-26T16:16:17.980Z,5.25
2022-08-26T16:19:21.163Z,5.72
2022-08-26T16:22:27.131Z,5.72
2022-08-26T16:25:31.856Z,5.20
2022-08-26T16:28:34.380Z,5.72
2022-08-26T16:31:38.319Z,5.63
2022-08-26T16:34:47.077Z,5.00
2022-08-26T16:38:00.820Z,5.00
2022-08-26T16:41:03.369Z,5.05
2022-08-26T16:44:07.183Z,4.88
2022-08-26T16:47:09.763Z,5.60
2022-08-26T16:50:12.940Z,6.00
2022-08-26T16:53:17.066Z,5.22
2022-08-26T16:56:22.445Z,5.35
2022-08-26T16:59:24.975Z,5.20
2022-08-26T17:02:27.479Z,5.25
2022-08-26T17:05:30.677Z,5.82
2022-08-26T17:08:34.521Z,6.47
2022-08-26T17:11:37.016Z,5.25
2022-08-26T17:14:39.491Z,5.10
2022-08-26T17:17:42.357Z,5.20
2022-08-26T17:20:45.602Z,6.47
2022-08-26T17:23:49.410Z,5.40
2022-08-26T17:26:55.648Z,5.28
2022-08-26T17:29:58.301Z,5.18
2022-08-26T17:33:01.017Z,4.75
2022-08-26T17:36:13.229Z,5.10
2022-08-26T17:39:17.059Z,5.43
2022-08-26T17:42:19.529Z,5.22
2022-08-26T17:45:22.659Z,4.90
2022-08-26T17:48:25.233Z,5.05
2022-08-26T17:51:28.248Z,5.45
2022-08-26T17:54:32.206Z,5.15
2022-08-26T17:57:40.853Z,5.20
2022-08-26T18:00:45.764Z,6.10
2022-08-26T18:03:48.341Z,6.55
2022-08-26T18:06:50.860Z,6.22
2022-08-26T18:09:54.659Z,6.00
2022-08-26T18:12:57.216Z,5.70
2022-08-26T18:15:59.813Z,5.68
2022-08-26T18:19:02.321Z,6.20
2022-08-26T18:22:05.706Z,5.80
2022-08-26T18:25:10.695Z,6.90
2022-08-26T18:28:13.469Z,6.57
2022-08-26T18:31:16.399Z,7.28
2022-08-26T18:34:19.450Z,6.82
2022-08-26T18:37:21.936Z,6.90
2022-08-26T18:40:25.989Z,6.75
2022-08-26T18:43:28.505Z,7.13
2022-08-26T18:46:31.227Z,7.28
2022-08-26T18:49:33.833Z,7.82
2022-08-26T18:52:36.319Z,6.93
2022-08-26T18:55:40.116Z,7.60
2022-08-26T18:58:42.656Z,7.78
2022-08-26T19:01:48.009Z,6.85
2022-08-26T19:04:53.061Z,8.27
2022-08-26T19:07:56.528Z,7.90
2022-08-26T19:11:00.497Z,8.32
2022-08-26T19:14:03.342Z,7.85
2022-08-26T19:17:06.154Z,8.40
2022-08-26T19:20:10.259Z,7.45
2022-08-26T19:23:30.207Z,7.78
2022-08-26T19:26:36.193Z,8.50
2022-08-26T19:29:38.672Z,8.90
2022-08-26T19:32:41.169Z,8.80
2022-08-26T19:35:44.066Z,8.98
2022-08-26T19:38:47.566Z,8.70
2022-08-26T19:41:51.769Z,9.57
2022-08-26T19:45:24.423Z,9.00
2022-08-26T19:48:27.448Z,8.43
2022-08-26T19:51:31.756Z,8.52
2022-08-26T19:54:34.566Z,8.50
2022-08-26T19:57:39.938Z,9.20
2022-08-26T20:00:42.801Z,8.00
2022-08-26T20:03:46.014Z,7.60
2022-08-26T20:06:48.516Z,8.50
2022-08-26T20:09:59.345Z,8.00
2022-08-26T20:13:03.155Z,8.45
2022-08-26T20:16:06.262Z,8.18
2022-08-26T20:19:27.056Z,7.55
2022-08-26T20:22:29.998Z,7.47
2022-08-26T20:25:33.597Z,7.57
2022-08-26T20:28:37.539Z,7.00
2022-08-26T20:31:40.533Z,7.80
2022-08-26T20:34:43.063Z,7.85
2022-08-26T20:37:46.715Z,7.28
2022-08-26T20:40:49.245Z,7.90
2022-08-26T20:43:53.224Z,8.00
2022-08-26T20:46:56.567Z,6.68
2022-08-26T20:49:59.185Z,8.48
2022-08-26T20:53:01.676Z,7.57
2022-08-26T20:56:06.377Z,8.45
2022-08-26T20:59:10.381Z,9.73
2022-08-26T21:02:13.346Z,8.85
2022-08-26T21:05:15.872Z,8.48
2022-08-26T21:08:18.437Z,9.68
2022-08-26T21:11:22.313Z,8.48
2022-08-26T21:14:26.162Z,9.50
2022-08-26T21:17:30.241Z,8.65
2022-08-26T21:20:33.612Z,9.43
2022-08-26T21:23:37.229Z,8.85
2022-08-26T21:26:40.140Z,10.07
2022-08-26T21:29:44.318Z,9.48
2022-08-26T21:32:51.134Z,9.13
2022-08-26T21:35:54.637Z,9.15
2022-08-26T21:38:57.332Z,9.07
2022-08-26T21:41:59.815Z,8.93
2022-08-26T21:45:06.766Z,8.65
2022-08-26T21:48:09.414Z,10.50
2022-08-26T21:51:14.061Z,10.10
2022-08-26T21:54:17.975Z,9.50
2022-08-26T21:57:20.480Z,10.50
2022-08-26T22:00:24.455Z,10.00
2022-08-26T22:03:27.075Z,10.68
2022-08-26T22:06:29.700Z,11.75
2022-08-26T22:09:32.653Z,11.10
2022-08-26T22:12:35.272Z,10.55
2022-08-26T22:15:40.658Z,10.35
2022-08-26T22:18:43.795Z,11.10
2022-08-26T22:21:47.364Z,11.32
2022-08-26T22:24:49.853Z,11.07
2022-08-26T22:27:52.613Z,10.70
2022-08-26T22:30:56.536Z,11.68
2022-08-26T22:33:59.818Z,12.75
2022-08-26T22:37:03.147Z,12.18
2022-08-26T22:40:06.772Z,12.55
2022-08-26T22:43:09.389Z,13.32
2022-08-26T22:46:18.171Z,13.00
2022-08-26T22:49:20.984Z,13.70
2022-08-26T22:52:23.525Z,13.57
2022-08-26T22:55:26.598Z,13.32
2022-08-26T22:58:30.970Z,13.52
2022-08-26T23:01:37.241Z,14.10
2022-08-26T23:04:40.896Z,14.30
2022-08-26T23:07:43.549Z,15.18
2022-08-26T23:10:47.965Z,15.60
2022-08-26T23:13:50.484Z,14.73
2022-08-26T23:16:54.381Z,14.82
2022-08-26T23:19:58.060Z,16.20
2022-08-26T23:23:01.356Z,15.35
2022-08-26T23:26:06.328Z,13.95
2022-08-26T23:29:11.056Z,14.25
2022-08-26T23:32:14.879Z,13.63
2022-08-26T23:35:21.442Z,14.02
2022-08-26T23:38:23.907Z,14.05
2022-08-26T23:41:27.529Z,12.98
2022-08-26T23:44:31.226Z,12.77
2022-08-26T23:47:35.125Z,12.15
2022-08-26T23:50:55.289Z,12.27
2022-08-26T23:53:58.418Z,13.13
2022-08-26T23:57:00.940Z,12.15
